Time;durP1;ratioP1;P1;durP2;ratioP2;P2;SDS_P1;SDS_P2;PMS_P1;PMS_P2;Temp;Humidity;BMP_temperature;BMP_pressure;BME280_temperature;BME280_humidity;BME280_pressure;Samples;Min_cycle;Max_cycle;Signal;HPM_P1;HPM_P2
2020/12/02 00:02:01;;;;;;;15.77;11.27;;;3.80;99.90;;;;;;5048531;28;20200;-86
2020/12/02 00:04:28;;;;;;;15.30;12.60;;;3.90;99.90;;;;;;5039930;28;20258;-85
2020/12/02 00:06:55;;;;;;;15.43;12.43;;;3.90;99.90;;;;;;5038587;28;20224;-85
2020/12/02 00:09:23;;;;;;;16.40;12.05;;;3.90;99.90;;;;;;5034756;28;20935;-86
2020/12/02 00:11:51;;;;;;;16.67;12.02;;;4.00;99.90;;;;;;5048502;28;20208;-86
2020/12/02 00:14:23;;;;;;;17.55;11.95;;;4.00;99.90;;;;;;5042360;28;20228;-86
2020/12/02 00:16:49;;;;;;;16.08;11.63;;;4.00;99.90;;;;;;5029226;28;20289;-86
2020/12/02 00:19:17;;;;;;;15.23;11.90;;;4.00;99.90;;;;;;5031332;28;20200;-86
2020/12/02 00:21:59;;;;;;;18.60;13.77;;;4.00;99.90;;;;;;5047864;28;20278;-85
2020/12/02 00:24:26;;;;;;;12.65;10.80;;;4.00;99.90;;;;;;5046554;28;20198;-86
2020/12/02 00:26:52;;;;;;;17.42;12.50;;;3.90;99.90;;;;;;5048972;28;20254;-86
2020/12/02 00:29:19;;;;;;;19.42;12.65;;;4.10;99.90;;;;;;5038631;28;20200;-86
2020/12/02 00:31:46;;;;;;;15.82;9.98;;;4.10;99.90;;;;;;5034129;28;20196;-86
2020/12/02 00:34:12;;;;;;;18.50;12.73;;;4.10;99.90;;;;;;5030471;28;20597;-85
2020/12/02 00:36:39;;;;;;;16.58;12.10;;;4.10;99.90;;;;;;5029027;28;20227;-86
2020/12/02 00:39:06;;;;;;;18.13;12.60;;;4.00;99.90;;;;;;5043720;28;20204;-86
2020/12/02 00:41:32;;;;;;;16.67;13.80;;;4.00;99.90;;;;;;5048455;28;20231;-85
2020/12/02 00:43:59;;;;;;;19.55;13.05;;;4.00;99.90;;;;;;5036720;28;20249;-86
2020/12/02 00:46:26;;;;;;;17.77;13.02;;;4.00;99.90;;;;;;5028724;28;20685;-87
2020/12/02 00:48:53;;;;;;;19.75;12.93;;;4.00;99.90;;;;;;5043660;28;20673;-86
2020/12/02 00:51:20;;;;;;;18.90;13.90;;;4.00;99.90;;;;;;5029464;28;20246;-85
2020/12/02 00:53:47;;;;;;;22.52;13.20;;;4.00;99.90;;;;;;5030112;28;20201;-86
2020/12/02 00:56:16;;;;;;;23.50;12.65;;;4.00;99.90;;;;;;5034960;28;20227;-86
2020/12/02 00:58:48;;;;;;;17.95;13.02;;;4.10;99.90;;;;;;5043133;28;20726;-86
2020/12/02 01:01:19;;;;;;;19.30;13.00;;;4.10;99.90;;;;;;5027995;28;20259;-86
2020/12/02 01:03:48;;;;;;;20.67;13.60;;;4.10;99.90;;;;;;5043229;28;20286;-86
2020/12/02 01:06:16;;;;;;;22.55;13.73;;;4.00;99.90;;;;;;5040097;28;20214;-86
2020/12/02 01:08:45;;;;;;;22.88;14.23;;;3.80;99.90;;;;;;5046316;28;20251;-85
2020/12/02 01:11:16;;;;;;;19.75;14.50;;;3.90;99.90;;;;;;5029141;28;20674;-86
2020/12/02 01:13:44;;;;;;;30.92;13.27;;;4.00;99.90;;;;;;5032057;28;20200;-85
2020/12/02 01:16:15;;;;;;;27.58;14.07;;;4.00;99.90;;;;;;5048803;28;20245;-86
2020/12/02 01:18:41;;;;;;;33.35;14.88;;;4.00;99.90;;;;;;5051731;28;20224;-84
2020/12/02 01:21:29;;;;;;;17.30;11.40;;;4.00;99.90;;;;;;5033665;28;20196;-85
2020/12/02 01:24:00;;;;;;;43.88;14.98;;;4.60;99.90;;;;;;5034408;28;20196;-85
2020/12/02 01:26:33;;;;;;;58.97;15.63;;;3.90;99.90;;;;;;5043348;28;20226;-86
2020/12/02 01:29:04;;;;;;;54.30;15.98;;;3.90;99.90;;;;;;5050170;28;20224;-86
2020/12/02 01:31:31;;;;;;;19.50;13.20;;;3.90;99.90;;;;;;5051902;28;20258;-87
2020/12/02 01:33:58;;;;;;;39.50;14.77;;;3.80;99.90;;;;;;5042263;28;20296;-86
2020/12/02 01:36:54;;;;;;;20.00;13.68;;;3.50;99.90;;;;;;5051807;28;20591;-86
2020/12/02 01:39:21;;;;;;;62.55;17.08;;;3.60;99.90;;;;;;5044569;28;20215;-86
2020/12/02 01:41:48;;;;;;;26.25;14.18;;;3.60;99.90;;;;;;5035515;28;20242;-86
2020/12/02 01:44:15;;;;;;;77.97;18.58;;;3.80;99.90;;;;;;5035527;28;20250;-85
2020/12/02 01:46:53;;;;;;;55.90;15.30;;;3.70;99.90;;;;;;5051740;28;20192;-85
2020/12/02 01:49:29;;;;;;;120.97;21.80;;;3.40;99.90;;;;;;5042985;28;20200;-86
2020/12/02 01:52:20;;;;;;;153.68;25.27;;;3.50;99.90;;;;;;5046831;28;20233;-86
2020/12/02 01:54:51;;;;;;;53.92;15.65;;;3.60;99.90;;;;;;5045736;28;20193;-85
2020/12/02 01:57:21;;;;;;;68.63;18.88;;;3.60;99.90;;;;;;5051293;28;20239;-86
2020/12/02 01:59:53;;;;;;;21.55;15.38;;;3.90;99.90;;;;;;5044182;28;20196;-86
2020/12/02 02:02:29;;;;;;;32.55;16.63;;;3.80;99.90;;;;;;5051230;28;20206;-86
2020/12/02 02:05:06;;;;;;;55.35;16.17;;;3.80;99.90;;;;;;5044214;28;20265;-86
2020/12/02 02:07:37;;;;;;;31.20;15.50;;;3.90;99.90;;;;;;5040062;28;20219;-85
2020/12/02 02:10:15;;;;;;;90.20;18.80;;;4.10;99.90;;;;;;5038151;28;20654;-85
2020/12/02 02:13:28;;;;;;;28.05;12.98;;;3.80;99.90;;;;;;5036403;28;20299;-86
2020/12/02 02:15:59;;;;;;;20.67;13.80;;;3.80;99.90;;;;;;5032425;28;20197;-86
2020/12/02 02:18:29;;;;;;;23.45;13.57;;;3.90;99.90;;;;;;5050701;28;20188;-86
2020/12/02 02:20:59;;;;;;;21.10;12.48;;;3.80;99.90;;;;;;5049332;28;20215;-86
2020/12/02 02:23:29;;;;;;;27.08;14.98;;;3.80;99.90;;;;;;5049215;28;20204;-86
2020/12/02 02:26:26;;;;;;;22.40;13.88;;;3.90;99.90;;;;;;5048057;28;20600;-85
2020/12/02 02:29:00;;;;;;;29.83;15.07;;;3.90;99.90;;;;;;5042720;28;20238;-85
2020/12/02 02:31:32;;;;;;;22.92;15.55;;;3.90;99.90;;;;;;5044958;28;20193;-85
2020/12/02 02:34:01;;;;;;;25.27;13.90;;;3.90;99.90;;;;;;5036668;28;20212;-86
2020/12/02 02:36:30;;;;;;;20.30;14.32;;;3.90;99.90;;;;;;5047382;28;20230;-86
2020/12/02 02:38:59;;;;;;;18.90;13.32;;;3.80;99.90;;;;;;5045310;28;20204;-86
2020/12/02 02:41:28;;;;;;;46.30;15.10;;;3.80;99.90;;;;;;5049988;28;20216;-86
2020/12/02 02:43:56;;;;;;;27.70;14.05;;;3.70;99.90;;;;;;5047122;28;20203;-86
2020/12/02 02:46:23;;;;;;;22.52;14.55;;;3.80;99.90;;;;;;5031749;28;20193;-86
2020/12/02 02:48:49;;;;;;;28.63;15.13;;;4.70;99.90;;;;;;5049544;28;20263;-85
2020/12/02 02:51:16;;;;;;;20.60;14.20;;;3.70;99.90;;;;;;5030185;28;20682;-85
2020/12/02 02:53:43;;;;;;;32.63;15.77;;;3.80;99.90;;;;;;5047222;28;20196;-86
2020/12/02 02:56:12;;;;;;;19.73;13.52;;;3.60;99.90;;;;;;5031347;28;20276;-86
2020/12/02 02:58:40;;;;;;;24.45;14.52;;;3.60;99.90;;;;;;5031256;28;20200;-86
2020/12/02 03:01:08;;;;;;;46.35;15.52;;;3.50;99.90;;;;;;5050171;28;20188;-86
2020/12/02 03:03:35;;;;;;;21.50;14.40;;;3.30;99.90;;;;;;5048471;28;20210;-84
2020/12/02 03:06:03;;;;;;;18.67;12.93;;;3.20;99.90;;;;;;5032216;28;20729;-85
2020/12/02 03:08:30;;;;;;;18.10;13.60;;;3.30;99.90;;;;;;5029693;28;20208;-85
2020/12/02 03:10:58;;;;;;;14.95;12.80;;;3.50;99.90;;;;;;5030958;28;20660;-86
2020/12/02 03:13:35;;;;;;;20.23;14.48;;;3.70;99.90;;;;;;5042203;28;20257;-85
2020/12/02 03:16:07;;;;;;;20.17;13.15;;;3.70;99.90;;;;;;5048274;28;20257;-85
2020/12/02 03:18:34;;;;;;;22.92;14.50;;;4.10;99.90;;;;;;5048243;28;20208;-86
2020/12/02 03:21:03;;;;;;;21.77;13.70;;;3.90;99.90;;;;;;5029242;28;20192;-85
2020/12/02 03:23:30;;;;;;;21.75;15.20;;;3.90;99.90;;;;;;5033325;28;20833;-85
2020/12/02 03:25:56;;;;;;;20.67;15.15;;;3.90;99.90;;;;;;5034274;28;20203;-86
2020/12/02 03:28:28;;;;;;;19.58;12.63;;;3.90;99.90;;;;;;5049683;28;20757;-86
2020/12/02 03:30:59;;;;;;;20.45;13.65;;;3.90;99.90;;;;;;5047328;28;20250;-86
2020/12/02 03:33:26;;;;;;;19.00;14.70;;;4.20;99.90;;;;;;5048590;28;20200;-86
2020/12/02 03:35:53;;;;;;;18.52;14.18;;;3.90;99.90;;;;;;5032493;28;20196;-86
2020/12/02 03:38:19;;;;;;;18.33;13.45;;;3.80;99.90;;;;;;5030476;28;20662;-85
2020/12/02 03:40:46;;;;;;;19.08;13.10;;;3.90;99.90;;;;;;5048095;28;20258;-85
2020/12/02 03:43:12;;;;;;;17.63;12.10;;;3.80;99.90;;;;;;5040934;28;20192;-85
2020/12/02 03:45:42;;;;;;;16.75;12.70;;;3.80;99.90;;;;;;5049339;28;20222;-85
2020/12/02 03:48:10;;;;;;;17.77;14.40;;;4.60;99.90;;;;;;5037229;28;20228;-85
2020/12/02 03:50:37;;;;;;;18.38;14.23;;;3.90;99.90;;;;;;5046346;28;20255;-86
2020/12/02 03:53:05;;;;;;;22.42;12.93;;;3.90;99.90;;;;;;5048952;28;20349;-85
2020/12/02 03:55:31;;;;;;;18.55;13.95;;;4.00;99.90;;;;;;5031672;28;20568;-86
2020/12/02 03:57:58;;;;;;;16.63;12.75;;;4.00;99.70;;;;;;5029333;28;20192;-85
2020/12/02 04:00:24;;;;;;;20.35;13.25;;;4.00;99.60;;;;;;5029255;28;20262;-85
2020/12/02 04:02:51;;;;;;;20.95;14.65;;;4.00;99.60;;;;;;5029390;28;20209;-85
2020/12/02 04:05:17;;;;;;;26.77;15.48;;;3.90;99.70;;;;;;5032418;28;20243;-86
2020/12/02 04:07:45;;;;;;;19.98;13.85;;;3.90;99.70;;;;;;5040805;28;20216;-86
2020/12/02 04:10:12;;;;;;;15.82;12.23;;;3.90;99.60;;;;;;5048095;28;20277;-85
2020/12/02 04:12:38;;;;;;;17.98;13.75;;;4.10;99.80;;;;;;5049184;28;20208;-86
2020/12/02 04:15:05;;;;;;;15.88;12.30;;;4.00;99.50;;;;;;5047468;28;20234;-86
2020/12/02 04:17:31;;;;;;;17.90;13.85;;;4.20;99.50;;;;;;5050148;28;20269;-86
2020/12/02 04:19:58;;;;;;;17.05;12.93;;;4.00;99.30;;;;;;5039152;28;20670;-85
2020/12/02 04:22:24;;;;;;;17.98;12.82;;;4.00;99.30;;;;;;5029646;28;20270;-85
2020/12/02 04:24:52;;;;;;;15.20;12.93;;;4.00;99.30;;;;;;5047854;28;20219;-85
2020/12/02 04:27:18;;;;;;;20.95;13.52;;;4.70;99.60;;;;;;5049442;28;20604;-86
2020/12/02 04:29:45;;;;;;;16.27;13.15;;;4.10;99.10;;;;;;5036391;28;20224;-86
2020/12/02 04:32:12;;;;;;;18.75;14.38;;;4.00;99.00;;;;;;5048986;28;20277;-85
2020/12/02 04:34:38;;;;;;;19.63;14.00;;;4.20;99.10;;;;;;5040408;28;20200;-86
2020/12/02 04:37:05;;;;;;;17.52;13.38;;;4.10;98.90;;;;;;5029562;28;20205;-86
2020/12/02 04:39:32;;;;;;;20.23;14.48;;;4.10;98.90;;;;;;5048002;28;20647;-86
2020/12/02 04:41:59;;;;;;;20.58;13.85;;;4.80;99.30;;;;;;5047634;28;20212;-85
2020/12/02 04:44:26;;;;;;;19.33;13.45;;;4.20;98.80;;;;;;5038187;28;20245;-85
2020/12/02 04:46:54;;;;;;;17.30;13.00;;;4.10;98.70;;;;;;5051405;28;20269;-85
2020/12/02 04:49:24;;;;;;;14.60;12.15;;;4.10;98.70;;;;;;5053181;28;20227;-86
2020/12/02 04:51:55;;;;;;;18.02;12.73;;;4.10;98.90;;;;;;5042895;28;20654;-85
2020/12/02 04:54:22;;;;;;;22.50;14.70;;;4.00;98.80;;;;;;5033382;28;20257;-86
2020/12/02 04:56:49;;;;;;;17.85;12.77;;;4.70;99.30;;;;;;5032948;28;20200;-86
2020/12/02 04:59:17;;;;;;;20.00;13.10;;;4.00;99.10;;;;;;5036805;28;20204;-85
2020/12/02 05:01:50;;;;;;;16.70;12.80;;;4.00;99.10;;;;;;5035290;28;20201;-85
2020/12/02 05:04:19;;;;;;;21.45;13.82;;;4.10;98.90;;;;;;5046791;28;20753;-85
2020/12/02 05:06:47;;;;;;;20.45;14.02;;;4.00;98.80;;;;;;5052506;28;20566;-85
2020/12/02 05:09:18;;;;;;;19.35;13.55;;;4.00;98.90;;;;;;5049939;28;20219;-85
2020/12/02 05:11:56;;;;;;;15.15;11.95;;;5.00;99.50;;;;;;5052095;28;20664;-85
2020/12/02 05:14:29;;;;;;;20.52;14.18;;;4.00;98.80;;;;;;5049655;28;20218;-85
2020/12/02 05:17:20;;;;;;;17.15;12.10;;;4.00;98.80;;;;;;5051776;28;20258;-85
2020/12/02 05:19:49;;;;;;;18.45;12.82;;;3.90;98.90;;;;;;5037630;28;20200;-86
2020/12/02 05:22:17;;;;;;;15.93;11.85;;;3.90;99.00;;;;;;5049681;28;20591;-85
2020/12/02 05:24:47;;;;;;;18.75;11.90;;;3.90;99.00;;;;;;5039836;28;20200;-85
2020/12/02 05:27:16;;;;;;;18.65;11.65;;;4.00;99.10;;;;;;5050722;28;20612;-85
2020/12/02 05:29:51;;;;;;;16.85;12.85;;;3.90;99.00;;;;;;5033751;28;20266;-85
2020/12/02 05:32:20;;;;;;;17.35;12.10;;;3.90;98.90;;;;;;5046708;28;20592;-85
2020/12/02 05:34:47;;;;;;;20.20;13.60;;;3.90;98.80;;;;;;5041718;28;20197;-85
2020/12/02 05:37:22;;;;;;;16.50;12.57;;;3.90;98.70;;;;;;5032689;28;20201;-85
2020/12/02 05:39:53;;;;;;;17.10;12.70;;;3.80;98.70;;;;;;5046512;28;20745;-83
2020/12/02 05:42:25;;;;;;;16.02;12.77;;;4.00;99.00;;;;;;5050661;28;21362;-83
2020/12/02 05:45:01;;;;;;;17.52;12.82;;;3.90;98.70;;;;;;5041370;28;20196;-83
2020/12/02 05:47:27;;;;;;;16.70;12.50;;;4.30;98.90;;;;;;5052402;28;20202;-83
2020/12/02 05:49:57;;;;;;;16.95;12.10;;;4.00;98.60;;;;;;5044294;28;20193;-84
2020/12/02 05:52:27;;;;;;;20.05;12.15;;;4.10;98.60;;;;;;5031857;28;20992;-84
2020/12/02 05:54:57;;;;;;;16.17;11.32;;;4.30;98.70;;;;;;5040878;28;20238;-83
2020/12/02 05:57:24;;;;;;;16.83;11.15;;;3.90;98.40;;;;;;5043152;28;20839;-83
2020/12/02 05:59:52;;;;;;;15.48;12.52;;;3.80;98.70;;;;;;5043364;28;20907;-81
2020/12/02 06:02:21;;;;;;;16.23;12.75;;;4.00;98.90;;;;;;5039933;28;20881;-81
2020/12/02 06:04:51;;;;;;;15.25;12.65;;;3.90;98.90;;;;;;5033410;28;20275;-81
2020/12/02 06:07:18;;;;;;;15.27;11.85;;;4.10;98.90;;;;;;5032186;28;20728;-81
2020/12/02 06:09:46;;;;;;;20.70;12.52;;;3.90;99.00;;;;;;5043457;28;20230;-81
2020/12/02 06:12:15;;;;;;;20.30;11.93;;;4.70;98.90;;;;;;5031900;28;20216;-81
2020/12/02 06:14:42;;;;;;;18.65;11.45;;;3.80;98.50;;;;;;5032474;28;20189;-81
2020/12/02 06:17:26;;;;;;;19.55;11.20;;;3.90;98.70;;;;;;5032770;28;20197;-81
2020/12/02 06:19:53;;;;;;;15.77;11.88;;;3.90;98.50;;;;;;5043612;28;20188;-81
2020/12/02 06:22:41;;;;;;;17.02;11.50;;;4.10;98.70;;;;;;5042595;28;20249;-81
2020/12/02 06:25:33;;;;;;;16.25;11.32;;;3.90;98.50;;;;;;5048554;28;20200;-81
2020/12/02 06:28:00;;;;;;;20.40;13.90;;;3.90;98.30;;;;;;5045202;28;20758;-82
2020/12/02 06:30:26;;;;;;;19.35;12.32;;;3.80;98.40;;;;;;5032461;28;20649;-82
2020/12/02 06:33:12;;;;;;;20.88;11.75;;;3.90;98.40;;;;;;5035972;28;20230;-82
2020/12/02 06:35:39;;;;;;;18.55;11.10;;;3.70;98.30;;;;;;5044923;28;20195;-82
2020/12/02 06:38:30;;;;;;;19.35;12.65;;;3.70;98.60;;;;;;5035587;28;20200;-82
2020/12/02 06:41:23;;;;;;;14.80;10.52;;;4.20;98.70;;;;;;5025327;28;20267;-82
2020/12/02 06:43:55;;;;;;;18.23;11.75;;;3.70;98.30;;;;;;5040286;28;20258;-82
2020/12/02 06:46:56;;;;;;;16.73;11.98;;;3.70;98.30;;;;;;5050332;28;20602;-82
2020/12/02 06:49:25;;;;;;;18.52;12.10;;;3.60;98.00;;;;;;5040963;28;20766;-82
2020/12/02 06:51:57;;;;;;;18.85;11.57;;;4.30;98.50;;;;;;5050038;28;20665;-82
2020/12/02 06:54:24;;;;;;;17.40;11.88;;;3.50;98.60;;;;;;5049021;28;20200;-82
2020/12/02 06:56:57;;;;;;;16.73;10.82;;;3.50;98.40;;;;;;5050778;28;20208;-82
2020/12/02 06:59:24;;;;;;;15.80;11.82;;;3.40;98.50;;;;;;5048864;28;20592;-82
2020/12/02 07:01:52;;;;;;;26.45;13.25;;;3.70;98.60;;;;;;5049687;28;20261;-81
2020/12/02 07:04:22;;;;;;;21.13;11.48;;;3.70;98.60;;;;;;5036192;28;20192;-83
2020/12/02 07:06:58;;;;;;;13.57;10.18;;;3.40;98.30;;;;;;5044568;28;20197;-83
2020/12/02 07:09:25;;;;;;;19.10;12.13;;;3.40;98.60;;;;;;5036428;28;20216;-83
2020/12/02 07:11:56;;;;;;;17.45;11.30;;;3.30;98.70;;;;;;5029812;28;20209;-82
2020/12/02 07:14:27;;;;;;;17.13;12.27;;;3.30;98.40;;;;;;5032250;28;20238;-82
2020/12/02 07:16:58;;;;;;;21.42;11.07;;;4.60;99.20;;;;;;5030736;28;20196;-82
2020/12/02 07:19:28;;;;;;;22.92;12.85;;;3.30;98.40;;;;;;5031638;28;20193;-82
2020/12/02 07:21:59;;;;;;;18.35;12.38;;;3.40;98.40;;;;;;5050030;28;20199;-82
2020/12/02 07:24:29;;;;;;;20.40;12.63;;;3.60;98.20;;;;;;5032855;28;20196;-81
2020/12/02 07:26:56;;;;;;;16.77;11.57;;;3.70;98.20;;;;;;5038778;28;20553;-82
2020/12/02 07:29:25;;;;;;;16.55;11.45;;;3.50;98.00;;;;;;5045771;28;20223;-82
2020/12/02 07:31:58;;;;;;;13.25;10.02;;;3.50;97.90;;;;;;5029214;28;20595;-82
2020/12/02 07:34:24;;;;;;;15.88;10.95;;;3.50;97.80;;;;;;5031325;28;20211;-81
2020/12/02 07:36:58;;;;;;;16.80;12.75;;;3.50;97.80;;;;;;5029810;28;20208;-82
2020/12/02 07:39:25;;;;;;;14.90;10.30;;;3.60;97.80;;;;;;5030954;28;20282;-82
2020/12/02 07:42:01;;;;;;;20.42;12.98;;;3.60;97.70;;;;;;5029336;28;20206;-82
2020/12/02 07:44:29;;;;;;;17.08;11.90;;;4.00;97.80;;;;;;5045910;28;20254;-82
2020/12/02 07:46:59;;;;;;;20.00;12.35;;;3.60;97.40;;;;;;5030054;28;20204;-82
2020/12/02 07:49:27;;;;;;;17.85;11.25;;;3.60;97.60;;;;;;5049086;28;20618;-82
2020/12/02 07:52:00;;;;;;;17.88;12.02;;;3.70;97.60;;;;;;5049053;28;20871;-82
2020/12/02 07:54:29;;;;;;;18.67;11.70;;;3.70;97.40;;;;;;5045965;28;20611;-82
2020/12/02 07:56:56;;;;;;;16.95;12.88;;;3.80;97.40;;;;;;5030081;28;20204;-82
2020/12/02 07:59:25;;;;;;;18.50;12.43;;;4.30;97.70;;;;;;5041381;28;20614;-82
2020/12/02 08:02:10;;;;;;;20.98;11.85;;;3.80;97.60;;;;;;5029298;28;20212;-82
2020/12/02 08:04:52;;;;;;;20.85;12.23;;;3.70;97.60;;;;;;5046686;28;20299;-82
2020/12/02 08:07:20;;;;;;;20.30;12.80;;;3.70;97.50;;;;;;5042579;28;20196;-82
2020/12/02 08:09:48;;;;;;;23.13;12.68;;;3.70;97.50;;;;;;5046602;28;20709;-82
2020/12/02 08:12:18;;;;;;;15.93;11.30;;;3.90;97.50;;;;;;5031109;28;20207;-82
2020/12/02 08:14:48;;;;;;;17.15;12.77;;;3.80;97.30;;;;;;5030361;28;20193;-82
2020/12/02 08:17:18;;;;;;;22.48;11.70;;;3.70;97.30;;;;;;5029684;28;20259;-82
2020/12/02 08:19:47;;;;;;;20.25;13.90;;;3.80;97.20;;;;;;5034468;28;20550;-82
2020/12/02 08:22:30;;;;;;;20.40;13.85;;;3.80;97.00;;;;;;5033478;28;20931;-82
2020/12/02 08:25:22;;;;;;;17.55;12.25;;;3.70;97.10;;;;;;5039740;28;20243;-82
2020/12/02 08:27:50;;;;;;;17.15;12.77;;;5.10;97.80;;;;;;5029482;28;20200;-82
2020/12/02 08:30:22;;;;;;;22.23;14.48;;;3.70;97.20;;;;;;5042094;28;20257;-82
2020/12/02 08:32:54;;;;;;;23.67;15.02;;;3.70;97.10;;;;;;5044095;28;20204;-83
2020/12/02 08:35:27;;;;;;;19.20;13.18;;;3.80;97.20;;;;;;5036199;28;20265;-82
2020/12/02 08:37:56;;;;;;;19.48;13.80;;;3.90;97.10;;;;;;5030052;28;20192;-82
2020/12/02 08:40:41;;;;;;;25.98;15.02;;;3.80;96.90;;;;;;5030243;28;20279;-82
2020/12/02 08:43:36;;;;;;;22.55;14.20;;;3.80;96.80;;;;;;5041444;28;20227;-81
2020/12/02 08:46:13;;;;;;;32.78;15.48;;;3.80;97.00;;;;;;5033079;28;20206;-83
2020/12/02 08:48:42;;;;;;;21.15;13.15;;;3.80;96.80;;;;;;5037782;28;20729;-81
2020/12/02 08:51:10;;;;;;;20.73;13.73;;;3.80;96.90;;;;;;5037603;28;20192;-81
2020/12/02 08:53:37;;;;;;;20.42;12.98;;;3.70;96.80;;;;;;5038780;28;20208;-81
2020/12/02 08:56:13;;;;;;;20.63;15.35;;;3.70;97.00;;;;;;5044029;28;20196;-81
2020/12/02 08:58:39;;;;;;;20.30;12.60;;;3.80;97.00;;;;;;5036710;28;20195;-81
2020/12/02 09:01:06;;;;;;;16.52;11.60;;;3.80;96.80;;;;;;5047916;28;20199;-81
2020/12/02 09:03:33;;;;;;;21.02;12.80;;;3.90;96.70;;;;;;5039107;28;20196;-82
2020/12/02 09:05:59;;;;;;;21.77;12.85;;;3.80;96.50;;;;;;5031201;28;20244;-82
2020/12/02 09:08:25;;;;;;;19.67;12.57;;;3.90;96.30;;;;;;5028991;28;20697;-82
2020/12/02 09:10:54;;;;;;;16.55;11.35;;;3.90;96.20;;;;;;5044061;28;20249;-81
2020/12/02 09:13:21;;;;;;;16.70;12.27;;;4.20;95.90;;;;;;5048763;28;20218;-82
2020/12/02 09:15:47;;;;;;;17.88;11.77;;;3.90;95.90;;;;;;5047218;28;20673;-82
2020/12/02 09:18:14;;;;;;;18.83;10.93;;;3.90;96.00;;;;;;5048983;28;20208;-82
2020/12/02 09:20:43;;;;;;;18.63;11.98;;;3.80;95.90;;;;;;5045958;28;20200;-83
2020/12/02 09:23:10;;;;;;;20.85;12.25;;;3.80;96.10;;;;;;5048467;28;20206;-82
2020/12/02 09:25:36;;;;;;;20.92;11.65;;;3.90;96.10;;;;;;5046746;28;20196;-81
2020/12/02 09:28:02;;;;;;;14.77;11.00;;;4.00;96.00;;;;;;5048769;28;20665;-81
2020/12/02 09:30:30;;;;;;;16.35;10.85;;;3.90;95.80;;;;;;5046542;28;20192;-81
2020/12/02 09:32:57;;;;;;;16.40;9.85;;;3.90;95.70;;;;;;5042235;28;20296;-81
2020/12/02 09:35:25;;;;;;;15.13;11.18;;;3.90;95.40;;;;;;5043698;28;20287;-82
2020/12/02 09:37:55;;;;;;;21.20;11.43;;;4.00;95.50;;;;;;5067523;28;20204;-81
2020/12/02 09:40:27;;;;;;;19.52;9.45;;;4.00;95.60;;;;;;5033685;28;20208;-82
2020/12/02 09:43:16;;;;;;;12.48;9.05;;;4.00;95.10;;;;;;5034626;28;20283;-80
2020/12/02 09:45:56;;;;;;;11.40;9.10;;;3.90;94.90;;;;;;5047740;28;20204;-82
2020/12/02 09:48:28;;;;;;;13.25;8.05;;;4.00;95.40;;;;;;5030540;28;20681;-81
2020/12/02 09:50:57;;;;;;;12.45;8.27;;;4.00;95.20;;;;;;5050034;28;20204;-81
2020/12/02 09:53:32;;;;;;;13.55;9.65;;;4.00;94.90;;;;;;5039431;28;20201;-82
2020/12/02 09:56:19;;;;;;;13.82;8.65;;;4.00;94.80;;;;;;5035695;28;20677;-82
2020/12/02 09:58:55;;;;;;;15.90;11.48;;;5.00;96.00;;;;;;5049546;28;20196;-80
2020/12/02 10:01:37;;;;;;;14.07;8.35;;;4.10;94.70;;;;;;5032301;28;20574;-81
2020/12/02 10:04:41;;;;;;;11.82;8.60;;;4.10;94.60;;;;;;5042639;28;20197;-81
2020/12/02 10:07:34;;;;;;;13.23;8.77;;;4.30;94.70;;;;;;5031412;28;20207;-81
2020/12/02 10:10:29;;;;;;;9.18;7.85;;;4.20;94.60;;;;;;5033311;28;20220;-81
2020/12/02 10:13:12;;;;;;;8.85;7.22;;;4.20;94.00;;;;;;5051466;28;20207;-81
2020/12/02 10:15:47;;;;;;;9.27;8.10;;;4.30;94.00;;;;;;5039012;28;20557;-81
2020/12/02 10:18:53;;;;;;;12.32;7.80;;;4.20;94.00;;;;;;5031782;28;20308;-82
2020/12/02 10:21:38;;;;;;;9.25;7.22;;;4.20;93.70;;;;;;5077203;28;20193;-81
2020/12/02 10:24:20;;;;;;;9.60;8.38;;;4.30;93.70;;;;;;5034015;28;20606;-81
2020/12/02 10:27:21;;;;;;;8.55;6.75;;;4.20;93.50;;;;;;5031473;28;20204;-82
2020/12/02 10:30:11;;;;;;;9.57;7.18;;;4.30;93.30;;;;;;5038379;28;20277;-81
2020/12/02 10:33:26;;;;;;;11.20;7.93;;;4.30;93.30;;;;;;5051685;28;20204;-81
2020/12/02 10:36:02;;;;;;;11.13;7.28;;;5.00;93.40;;;;;;5026711;28;20208;-82
2020/12/02 10:38:35;;;;;;;13.38;9.60;;;4.20;93.40;;;;;;5039075;28;20720;-81
2020/12/02 10:41:14;;;;;;;12.55;8.68;;;4.20;93.40;;;;;;5050131;28;20224;-81
2020/12/02 10:43:58;;;;;;;17.40;11.15;;;4.20;93.60;;;;;;5036316;28;20894;-81
2020/12/02 10:46:46;;;;;;;14.63;10.35;;;4.20;93.30;;;;;;5033845;28;20200;-82
2020/12/02 10:49:24;;;;;;;19.20;11.68;;;4.20;93.30;;;;;;5046223;28;20576;-82
2020/12/02 10:51:57;;;;;;;13.45;10.02;;;4.30;93.30;;;;;;5039957;28;20200;-82
2020/12/02 10:54:34;;;;;;;11.52;9.00;;;4.80;93.60;;;;;;5049289;28;20543;-82
2020/12/02 10:57:06;;;;;;;20.20;11.48;;;4.30;93.00;;;;;;5050441;28;20207;-82
2020/12/02 10:59:33;;;;;;;16.33;10.73;;;4.30;93.10;;;;;;5049258;28;20656;-82
2020/12/02 11:02:04;;;;;;;21.35;12.38;;;4.20;93.10;;;;;;5050860;28;20277;-82
2020/12/02 11:04:32;;;;;;;18.75;11.45;;;4.20;93.40;;;;;;5041278;28;20258;-82
2020/12/02 11:07:12;;;;;;;18.30;12.23;;;4.20;93.50;;;;;;5030819;28;20219;-82
2020/12/02 11:09:52;;;;;;;19.95;11.45;;;4.30;93.50;;;;;;5039243;28;20233;-82
2020/12/02 11:12:49;;;;;;;20.58;12.80;;;4.20;93.60;;;;;;5037773;28;20223;-82
2020/12/02 11:15:28;;;;;;;27.15;13.82;;;4.20;93.70;;;;;;5031883;28;20212;-82
2020/12/02 11:18:32;;;;;;;26.15;14.90;;;4.30;93.70;;;;;;5035189;28;20208;-81
2020/12/02 11:21:21;;;;;;;25.60;14.25;;;4.20;93.80;;;;;;5028166;28;20673;-81
2020/12/02 11:24:11;;;;;;;21.20;13.95;;;4.20;94.20;;;;;;5048848;28;20200;-82
2020/12/02 11:26:39;;;;;;;26.30;13.65;;;4.20;93.80;;;;;;5046823;28;20251;-82
2020/12/02 11:29:09;;;;;;;22.10;13.48;;;4.10;93.80;;;;;;5042429;28;20239;-82
2020/12/02 11:32:15;;;;;;;19.95;14.82;;;5.60;94.60;;;;;;5049504;28;20270;-81
2020/12/02 11:35:00;;;;;;;24.10;16.13;;;4.10;93.90;;;;;;5030129;28;20761;-82
2020/12/02 11:37:33;;;;;;;26.35;13.75;;;4.10;94.00;;;;;;5042337;28;20200;-82
2020/12/02 11:40:07;;;;;;;21.50;14.07;;;4.10;94.10;;;;;;5030265;28;20212;-82
2020/12/02 11:42:42;;;;;;;24.17;14.65;;;4.80;94.40;;;;;;5030381;28;20200;-82
2020/12/02 11:45:16;;;;;;;28.23;16.23;;;4.00;94.10;;;;;;5043485;28;20777;-81
2020/12/02 11:47:59;;;;;;;26.55;17.30;;;4.00;94.20;;;;;;5049892;28;20230;-81
2020/12/02 11:50:30;;;;;;;22.08;14.20;;;4.00;94.10;;;;;;5031480;28;20283;-82
2020/12/02 11:53:14;;;;;;;25.88;14.77;;;4.00;94.00;;;;;;5029909;28;20205;-82
2020/12/02 11:55:43;;;;;;;17.48;11.88;;;4.10;94.00;;;;;;5035130;28;20303;-82
2020/12/02 11:58:15;;;;;;;26.85;13.40;;;4.10;93.90;;;;;;5045167;28;20193;-81
2020/12/02 12:00:50;;;;;;;24.02;12.73;;;4.10;93.90;;;;;;5030124;28;20208;-82
2020/12/02 12:03:33;;;;;;;20.48;11.85;;;4.10;93.70;;;;;;5043329;28;20196;-81
2020/12/02 12:06:05;;;;;;;20.27;13.18;;;4.10;93.90;;;;;;5043631;28;20262;-82
2020/12/02 12:08:59;;;;;;;21.63;13.90;;;4.00;93.90;;;;;;5048244;28;20851;-82
2020/12/02 12:11:31;;;;;;;20.85;13.15;;;4.00;94.00;;;;;;5048514;28;20582;-82
2020/12/02 12:14:04;;;;;;;19.10;11.65;;;4.00;94.10;;;;;;5048979;28;20257;-82
2020/12/02 12:16:41;;;;;;;19.20;11.65;;;4.00;94.20;;;;;;5048735;28;20277;-82
2020/12/02 12:19:20;;;;;;;18.35;12.52;;;4.50;93.90;;;;;;5048976;28;20195;-82
2020/12/02 12:21:59;;;;;;;15.85;10.68;;;3.80;93.80;;;;;;5049177;28;20299;-82
2020/12/02 12:24:27;;;;;;;19.92;13.52;;;3.80;93.80;;;;;;5047579;28;20200;-82
2020/12/02 12:26:56;;;;;;;21.23;12.85;;;3.80;94.00;;;;;;5049156;28;20215;-82
2020/12/02 12:29:23;;;;;;;21.80;13.50;;;3.80;94.20;;;;;;5046021;28;20223;-82
2020/12/02 12:32:08;;;;;;;21.48;12.70;;;3.60;94.00;;;;;;5033609;28;20205;-83
2020/12/02 12:34:51;;;;;;;18.17;11.00;;;3.70;94.10;;;;;;5046778;28;20188;-84
2020/12/02 12:37:24;;;;;;;18.73;12.27;;;4.30;93.90;;;;;;5048541;28;20563;-84
2020/12/02 12:40:26;;;;;;;21.08;13.20;;;3.70;93.60;;;;;;5044066;28;20283;-84
2020/12/02 12:43:34;;;;;;;26.77;14.40;;;3.00;93.60;;;;;;5040649;28;20211;-84
2020/12/02 12:46:11;;;;;;;27.13;16.05;;;3.40;94.50;;;;;;5045528;28;20254;-83
2020/12/02 12:48:40;;;;;;;27.05;15.13;;;3.50;94.40;;;;;;5042297;28;20232;-81
2020/12/02 12:51:10;;;;;;;25.38;14.60;;;3.60;94.70;;;;;;5029537;28;20243;-80
2020/12/02 12:53:41;;;;;;;28.73;14.27;;;3.90;94.80;;;;;;5047380;28;20203;-81
2020/12/02 12:56:12;;;;;;;27.10;14.48;;;3.40;94.60;;;;;;5037867;28;20243;-81
2020/12/02 12:58:41;;;;;;;23.58;14.48;;;3.40;94.60;;;;;;5038341;28;20231;-81
2020/12/02 13:01:20;;;;;;;24.13;13.38;;;3.20;94.40;;;;;;5048952;28;20750;-81
2020/12/02 13:03:51;;;;;;;24.80;14.00;;;3.40;94.50;;;;;;5048852;28;20716;-81
2020/12/02 13:06:33;;;;;;;23.45;13.40;;;3.50;94.50;;;;;;5046295;28;20693;-81
2020/12/02 13:09:07;;;;;;;23.45;13.52;;;3.50;94.30;;;;;;5044212;28;20242;-82